sensor_id;sensor_type;location;lat;lon;timestamp;temperature;humidity
82877;DHT22;72655;47.596;7.658;2023-09-19T06:01:03;17.90;99.90
82877;DHT22;72655;47.596;7.658;2023-09-19T06:03:30;17.80;99.90
82877;DHT22;72655;47.596;7.658;2023-09-19T06:05:57;17.80;99.90
82877;DHT22;72655;47.596;7.658;2023-09-19T06:08:25;17.90;99.90
82877;DHT22;72655;47.596;7.658;2023-09-19T06:10:53;17.90;99.90
82877;DHT22;72655;47.596;7.658;2023-09-19T06:13:28;18.00;99.90
82877;DHT22;72655;47.596;7.658;2023-09-19T06:15:55;18.00;99.90
82877;DHT22;72655;47.596;7.658;2023-09-19T06:18:25;18.00;99.90
82877;DHT22;72655;47.596;7.658;2023-09-19T06:20:55;18.00;99.90
82877;DHT22;72655;47.596;7.658;2023-09-19T06:23:22;18.10;99.90
82877;DHT22;72655;47.596;7.658;2023-09-19T06:25:49;18.10;99.90
82877;DHT22;72655;47.596;7.658;2023-09-19T06:28:16;18.10;99.90
82877;DHT22;72655;47.596;7.658;2023-09-19T06:30:49;18.10;99.90
82877;DHT22;72655;47.596;7.658;2023-09-19T06:33:19;18.20;99.90
82877;DHT22;72655;47.596;7.658;2023-09-19T06:35:50;18.20;99.90
82877;DHT22;72655;47.596;7.658;2023-09-19T06:38:24;18.20;99.90
82877;DHT22;72655;47.596;7.658;2023-09-19T06:40:53;18.20;99.90
82877;DHT22;72655;47.596;7.658;2023-09-19T06:43:21;18.30;99.90
82877;DHT22;72655;47.596;7.658;2023-09-19T06:45:48;18.20;99.90
82877;DHT22;72655;47.596;7.658;2023-09-19T06:48:16;18.30;99.90
82877;DHT22;72655;47.596;7.658;2023-09-19T06:50:46;18.30;99.90
82877;DHT22;72655;47.596;7.658;2023-09-19T06:53:15;18.30;99.90
82877;DHT22;72655;47.596;7.658;2023-09-19T06:55:44;18.30;99.90
82877;DHT22;72655;47.596;7.658;2023-09-19T06:58:11;18.30;99.90
82877;DHT22;72655;47.596;7.658;2023-09-19T07:00:42;18.30;99.90
82877;DHT22;72655;47.596;7.658;2023-09-19T07:03:10;18.20;99.90
82877;DHT22;72655;47.596;7.658;2023-09-19T07:05:38;18.20;99.90
82877;DHT22;72655;47.596;7.658;2023-09-19T07:08:06;18.20;99.90
82877;DHT22;72655;47.596;7.658;2023-09-19T07:10:35;18.20;99.90
82877;DHT22;72655;47.596;7.658;2023-09-19T07:13:07;18.20;99.90
82877;DHT22;72655;47.596;7.658;2023-09-19T07:15:37;18.20;99.90
82877;DHT22;72655;47.596;7.658;2023-09-19T07:18:12;18.20;99.90
82877;DHT22;72655;47.596;7.658;2023-09-19T07:20:40;18.30;99.90
82877;DHT22;72655;47.596;7.658;2023-09-19T07:23:11;18.20;99.90
82877;DHT22;72655;47.596;7.658;2023-09-19T07:25:42;18.30;99.90
82877;DHT22;72655;47.596;7.658;2023-09-19T07:28:09;18.40;99.90
82877;DHT22;72655;47.596;7.658;2023-09-19T07:30:36;18.40;99.90
82877;DHT22;72655;47.596;7.658;2023-09-19T07:33:04;18.50;99.90
82877;DHT22;72655;47.596;7.658;2023-09-19T07:35:32;18.60;99.90
82877;DHT22;72655;47.596;7.658;2023-09-19T07:38:00;18.60;99.90
82877;DHT22;72655;47.596;7.658;2023-09-19T07:40:30;18.60;99.90
82877;DHT22;72655;47.596;7.658;2023-09-19T07:42:58;18.60;99.90
82877;DHT22;72655;47.596;7.658;2023-09-19T07:45:27;18.70;99.90
82877;DHT22;72655;47.596;7.658;2023-09-19T07:47:55;18.70;99.90
82877;DHT22;72655;47.596;7.658;2023-09-19T07:50:25;18.70;99.90
82877;DHT22;72655;47.596;7.658;2023-09-19T07:52:52;18.70;99.90
82877;DHT22;72655;47.596;7.658;2023-09-19T07:55:21;18.70;99.90
82877;DHT22;72655;47.596;7.658;2023-09-19T07:57:50;18.70;99.90
82877;DHT22;72655;47.596;7.658;2023-09-19T08:00:18;18.70;99.90
82877;DHT22;72655;47.596;7.658;2023-09-19T08:02:45;18.60;99.90
82877;DHT22;72655;47.596;7.658;2023-09-19T08:05:17;18.70;99.90
82877;DHT22;72655;47.596;7.658;2023-09-19T08:07:46;18.70;99.90
82877;DHT22;72655;47.596;7.658;2023-09-19T08:10:14;18.80;99.90
82877;DHT22;72655;47.596;7.658;2023-09-19T08:12:43;18.90;99.90
82877;DHT22;72655;47.596;7.658;2023-09-19T08:15:12;18.90;99.90
82877;DHT22;72655;47.596;7.658;2023-09-19T08:17:41;18.90;99.90
82877;DHT22;72655;47.596;7.658;2023-09-19T08:20:09;19.10;99.90
82877;DHT22;72655;47.596;7.658;2023-09-19T08:22:43;19.10;99.90
82877;DHT22;72655;47.596;7.658;2023-09-19T08:25:12;19.20;99.90
82877;DHT22;72655;47.596;7.658;2023-09-19T08:27:39;19.20;99.90
82877;DHT22;72655;47.596;7.658;2023-09-19T08:30:07;19.20;99.90
82877;DHT22;72655;47.596;7.658;2023-09-19T08:32:36;19.10;99.90
82877;DHT22;72655;47.596;7.658;2023-09-19T08:35:06;19.10;99.90
82877;DHT22;72655;47.596;7.658;2023-09-19T08:37:34;19.00;99.90
82877;DHT22;72655;47.596;7.658;2023-09-19T08:40:02;19.00;99.90
82877;DHT22;72655;47.596;7.658;2023-09-19T08:42:29;19.00;99.90
82877;DHT22;72655;47.596;7.658;2023-09-19T08:44:56;19.00;99.90
82877;DHT22;72655;47.596;7.658;2023-09-19T08:47:35;19.00;99.90
82877;DHT22;72655;47.596;7.658;2023-09-19T08:50:11;19.00;99.90
82877;DHT22;72655;47.596;7.658;2023-09-19T08:52:41;19.00;99.90
82877;DHT22;72655;47.596;7.658;2023-09-19T08:55:12;19.10;99.90
82877;DHT22;72655;47.596;7.658;2023-09-19T08:57:45;19.10;99.90
82877;DHT22;72655;47.596;7.658;2023-09-19T09:00:15;19.20;99.90
82877;DHT22;72655;47.596;7.658;2023-09-19T09:02:44;19.30;99.90
82877;DHT22;72655;47.596;7.658;2023-09-19T09:05:14;19.40;99.90
82877;DHT22;72655;47.596;7.658;2023-09-19T09:07:42;19.60;99.90
82877;DHT22;72655;47.596;7.658;2023-09-19T09:10:11;19.60;99.90
82877;DHT22;72655;47.596;7.658;2023-09-19T09:12:38;19.70;99.90
82877;DHT22;72655;47.596;7.658;2023-09-19T09:15:07;19.70;99.90
82877;DHT22;72655;47.596;7.658;2023-09-19T09:17:37;19.70;99.90
82877;DHT22;72655;47.596;7.658;2023-09-19T09:20:05;19.60;99.90
82877;DHT22;72655;47.596;7.658;2023-09-19T09:22:35;19.60;99.90
82877;DHT22;72655;47.596;7.658;2023-09-19T09:25:08;19.60;99.90
82877;DHT22;72655;47.596;7.658;2023-09-19T09:27:35;19.50;99.90
82877;DHT22;72655;47.596;7.658;2023-09-19T09:30:02;19.60;99.90
82877;DHT22;72655;47.596;7.658;2023-09-19T09:32:30;19.70;99.90
82877;DHT22;72655;47.596;7.658;2023-09-19T09:35:01;19.70;99.90
82877;DHT22;72655;47.596;7.658;2023-09-19T09:37:30;19.80;99.90
82877;DHT22;72655;47.596;7.658;2023-09-19T09:40:00;19.90;99.90
82877;DHT22;72655;47.596;7.658;2023-09-19T09:42:45;19.90;99.90
82877;DHT22;72655;47.596;7.658;2023-09-19T09:45:13;20.00;99.90
82877;DHT22;72655;47.596;7.658;2023-09-19T09:47:45;20.10;99.90
82877;DHT22;72655;47.596;7.658;2023-09-19T09:50:26;20.10;99.90
82877;DHT22;72655;47.596;7.658;2023-09-19T09:52:55;20.20;99.90
82877;DHT22;72655;47.596;7.658;2023-09-19T09:55:58;20.10;99.90
82877;DHT22;72655;47.596;7.658;2023-09-19T09:58:26;20.20;99.90
82877;DHT22;72655;47.596;7.658;2023-09-19T10:00:56;20.30;99.90
82877;DHT22;72655;47.596;7.658;2023-09-19T10:03:31;20.30;99.90
82877;DHT22;72655;47.596;7.658;2023-09-19T10:06:00;20.40;99.90
82877;DHT22;72655;47.596;7.658;2023-09-19T10:08:34;20.50;99.90
82877;DHT22;72655;47.596;7.658;2023-09-19T10:11:15;20.60;99.90
82877;DHT22;72655;47.596;7.658;2023-09-19T10:13:49;20.80;99.90
82877;DHT22;72655;47.596;7.658;2023-09-19T10:16:16;20.90;99.90
82877;DHT22;72655;47.596;7.658;2023-09-19T10:18:45;20.80;99.90
82877;DHT22;72655;47.596;7.658;2023-09-19T10:21:15;20.80;99.90
82877;DHT22;72655;47.596;7.658;2023-09-19T10:23:49;20.70;99.90
82877;DHT22;72655;47.596;7.658;2023-09-19T10:26:19;20.60;99.90
82877;DHT22;72655;47.596;7.658;2023-09-19T10:28:50;20.60;99.90
82877;DHT22;72655;47.596;7.658;2023-09-19T10:31:21;20.60;99.90
82877;DHT22;72655;47.596;7.658;2023-09-19T10:33:52;20.70;99.90
82877;DHT22;72655;47.596;7.658;2023-09-19T10:36:21;20.60;99.90
82877;DHT22;72655;47.596;7.658;2023-09-19T10:38:56;20.70;99.90
82877;DHT22;72655;47.596;7.658;2023-09-19T10:41:29;20.70;99.90
82877;DHT22;72655;47.596;7.658;2023-09-19T10:44:03;20.80;99.90
82877;DHT22;72655;47.596;7.658;2023-09-19T10:46:31;20.90;99.90
82877;DHT22;72655;47.596;7.658;2023-09-19T10:49:01;21.00;99.90
82877;DHT22;72655;47.596;7.658;2023-09-19T10:51:33;21.20;99.90
82877;DHT22;72655;47.596;7.658;2023-09-19T10:54:07;21.30;99.90
82877;DHT22;72655;47.596;7.658;2023-09-19T10:56:49;21.30;99.90
82877;DHT22;72655;47.596;7.658;2023-09-19T10:59:20;21.30;99.90
82877;DHT22;72655;47.596;7.658;2023-09-19T11:01:51;21.40;99.90
82877;DHT22;72655;47.596;7.658;2023-09-19T11:04:23;21.40;99.90
82877;DHT22;72655;47.596;7.658;2023-09-19T11:07:04;21.40;99.90
82877;DHT22;72655;47.596;7.658;2023-09-19T11:09:48;21.40;99.90
82877;DHT22;72655;47.596;7.658;2023-09-19T11:12:51;21.40;99.90
82877;DHT22;72655;47.596;7.658;2023-09-19T11:18:52;21.50;99.90
82877;DHT22;72655;47.596;7.658;2023-09-19T11:21:40;21.60;99.90
82877;DHT22;72655;47.596;7.658;2023-09-19T11:24:32;21.70;99.90
82877;DHT22;72655;47.596;7.658;2023-09-19T11:27:11;21.70;99.90
82877;DHT22;72655;47.596;7.658;2023-09-19T11:29:40;21.70;99.90
82877;DHT22;72655;47.596;7.658;2023-09-19T11:32:07;21.70;99.90
82877;DHT22;72655;47.596;7.658;2023-09-19T11:34:45;21.80;99.90
82877;DHT22;72655;47.596;7.658;2023-09-19T11:40:36;22.00;99.90
82877;DHT22;72655;47.596;7.658;2023-09-19T11:43:28;21.90;99.90
82877;DHT22;72655;47.596;7.658;2023-09-19T11:46:10;21.90;99.90
82877;DHT22;72655;47.596;7.658;2023-09-19T11:48:39;21.90;99.90
82877;DHT22;72655;47.596;7.658;2023-09-19T11:51:17;22.00;99.90
82877;DHT22;72655;47.596;7.658;2023-09-19T11:53:56;22.10;99.90
82877;DHT22;72655;47.596;7.658;2023-09-19T11:56:26;22.30;99.90
82877;DHT22;72655;47.596;7.658;2023-09-19T11:58:55;22.40;99.90
82877;DHT22;72655;47.596;7.658;2023-09-19T12:01:29;22.40;99.90
82877;DHT22;72655;47.596;7.658;2023-09-19T12:03:58;22.40;99.90
82877;DHT22;72655;47.596;7.658;2023-09-19T12:06:26;22.40;99.90
82877;DHT22;72655;47.596;7.658;2023-09-19T12:08:55;22.40;99.90
82877;DHT22;72655;47.596;7.658;2023-09-19T12:11:23;22.50;99.90
82877;DHT22;72655;47.596;7.658;2023-09-19T12:13:52;22.60;99.90
82877;DHT22;72655;47.596;7.658;2023-09-19T12:16:22;22.70;99.90
82877;DHT22;72655;47.596;7.658;2023-09-19T12:18:51;22.80;99.90
82877;DHT22;72655;47.596;7.658;2023-09-19T12:21:26;23.00;99.90
82877;DHT22;72655;47.596;7.658;2023-09-19T12:24:04;23.00;99.90
82877;DHT22;72655;47.596;7.658;2023-09-19T12:26:38;23.10;99.90
82877;DHT22;72655;47.596;7.658;2023-09-19T12:29:14;23.30;99.90
82877;DHT22;72655;47.596;7.658;2023-09-19T12:31:50;23.40;99.90
82877;DHT22;72655;47.596;7.658;2023-09-19T12:34:21;23.40;99.90
82877;DHT22;72655;47.596;7.658;2023-09-19T12:36:49;23.40;99.90
82877;DHT22;72655;47.596;7.658;2023-09-19T12:39:23;23.50;99.90
82877;DHT22;72655;47.596;7.658;2023-09-19T12:41:52;23.50;99.90
82877;DHT22;72655;47.596;7.658;2023-09-19T12:44:20;23.50;99.90
82877;DHT22;72655;47.596;7.658;2023-09-19T12:46:50;23.60;99.90
82877;DHT22;72655;47.596;7.658;2023-09-19T12:49:21;23.70;99.90
82877;DHT22;72655;47.596;7.658;2023-09-19T12:51:49;23.90;99.90
82877;DHT22;72655;47.596;7.658;2023-09-19T12:54:16;24.10;99.90
82877;DHT22;72655;47.596;7.658;2023-09-19T12:56:45;24.20;99.90
82877;DHT22;72655;47.596;7.658;2023-09-19T12:59:15;24.20;99.90
82877;DHT22;72655;47.596;7.658;2023-09-19T13:01:42;24.20;99.90
82877;DHT22;72655;47.596;7.658;2023-09-19T13:04:16;24.20;99.90
82877;DHT22;72655;47.596;7.658;2023-09-19T13:06:47;24.00;99.90
82877;DHT22;72655;47.596;7.658;2023-09-19T13:09:16;23.70;99.90
82877;DHT22;72655;47.596;7.658;2023-09-19T13:11:44;23.60;99.90
82877;DHT22;72655;47.596;7.658;2023-09-19T13:14:15;24.50;99.90
82877;DHT22;72655;47.596;7.658;2023-09-19T13:16:59;26.50;99.90
82877;DHT22;72655;47.596;7.658;2023-09-19T13:19:44;28.20;99.90
82877;DHT22;72655;47.596;7.658;2023-09-19T13:22:37;29.60;98.70
82877;DHT22;72655;47.596;7.658;2023-09-19T13:25:09;31.30;95.70
82877;DHT22;72655;47.596;7.658;2023-09-19T13:27:40;32.60;93.30
82877;DHT22;72655;47.596;7.658;2023-09-19T13:30:09;33.50;91.80
82877;DHT22;72655;47.596;7.658;2023-09-19T13:32:36;34.10;90.80
82877;DHT22;72655;47.596;7.658;2023-09-19T13:35:05;34.80;87.10
82877;DHT22;72655;47.596;7.658;2023-09-19T13:37:34;35.40;83.90
82877;DHT22;72655;47.596;7.658;2023-09-19T13:40:09;35.70;81.40
82877;DHT22;72655;47.596;7.658;2023-09-19T13:42:36;35.60;79.30
82877;DHT22;72655;47.596;7.658;2023-09-19T13:45:04;35.80;80.50
82877;DHT22;72655;47.596;7.658;2023-09-19T13:47:32;36.30;78.90
82877;DHT22;72655;47.596;7.658;2023-09-19T13:49:59;36.80;78.70
82877;DHT22;72655;47.596;7.658;2023-09-19T13:52:26;37.30;74.60
82877;DHT22;72655;47.596;7.658;2023-09-19T13:54:56;37.30;76.20
82877;DHT22;72655;47.596;7.658;2023-09-19T13:57:25;37.90;76.70
82877;DHT22;72655;47.596;7.658;2023-09-19T13:59:52;38.40;71.70
82877;DHT22;72655;47.596;7.658;2023-09-19T14:02:20;38.80;70.70
82877;DHT22;72655;47.596;7.658;2023-09-19T14:04:48;39.10;69.50
82877;DHT22;72655;47.596;7.658;2023-09-19T14:07:15;39.00;68.30
82877;DHT22;72655;47.596;7.658;2023-09-19T14:09:43;38.80;69.00
82877;DHT22;72655;47.596;7.658;2023-09-19T14:12:11;39.00;67.10
82877;DHT22;72655;47.596;7.658;2023-09-19T14:14:39;39.20;67.30
82877;DHT22;72655;47.596;7.658;2023-09-19T14:17:06;39.20;66.50
82877;DHT22;72655;47.596;7.658;2023-09-19T14:19:36;39.40;65.20
82877;DHT22;72655;47.596;7.658;2023-09-19T14:22:03;39.60;65.10
82877;DHT22;72655;47.596;7.658;2023-09-19T14:24:33;40.00;64.00
82877;DHT22;72655;47.596;7.658;2023-09-19T14:27:00;40.10;62.70
82877;DHT22;72655;47.596;7.658;2023-09-19T14:29:32;39.50;62.90
82877;DHT22;72655;47.596;7.658;2023-09-19T14:32:00;39.00;65.40
82877;DHT22;72655;47.596;7.658;2023-09-19T14:34:27;38.70;64.00
82877;DHT22;72655;47.596;7.658;2023-09-19T14:36:54;38.40;65.40
82877;DHT22;72655;47.596;7.658;2023-09-19T14:39:22;38.60;63.90
82877;DHT22;72655;47.596;7.658;2023-09-19T14:41:49;38.60;65.00
82877;DHT22;72655;47.596;7.658;2023-09-19T14:44:17;38.90;65.20
82877;DHT22;72655;47.596;7.658;2023-09-19T14:46:44;39.30;63.00
82877;DHT22;72655;47.596;7.658;2023-09-19T14:49:12;39.70;63.10
82877;DHT22;72655;47.596;7.658;2023-09-19T14:51:42;39.80;63.10
82877;DHT22;72655;47.596;7.658;2023-09-19T14:54:12;40.20;63.80
82877;DHT22;72655;47.596;7.658;2023-09-19T14:56:39;40.40;62.00
82877;DHT22;72655;47.596;7.658;2023-09-19T14:59:06;40.40;60.80
82877;DHT22;72655;47.596;7.658;2023-09-19T15:01:33;40.20;61.50
82877;DHT22;72655;47.596;7.658;2023-09-19T15:04:00;40.30;61.60
82877;DHT22;72655;47.596;7.658;2023-09-19T15:06:29;40.50;61.00
82877;DHT22;72655;47.596;7.658;2023-09-19T15:08:55;41.10;60.90
82877;DHT22;72655;47.596;7.658;2023-09-19T15:11:23;40.70;60.40
82877;DHT22;72655;47.596;7.658;2023-09-19T15:13:51;40.60;60.00
82877;DHT22;72655;47.596;7.658;2023-09-19T15:16:19;40.20;60.60
82877;DHT22;72655;47.596;7.658;2023-09-19T15:18:49;40.10;62.50
82877;DHT22;72655;47.596;7.658;2023-09-19T15:21:20;39.90;60.40
82877;DHT22;72655;47.596;7.658;2023-09-19T15:23:49;39.80;60.90
82877;DHT22;72655;47.596;7.658;2023-09-19T15:26:16;39.70;60.90
82877;DHT22;72655;47.596;7.658;2023-09-19T15:28:46;39.50;61.00
82877;DHT22;72655;47.596;7.658;2023-09-19T15:31:13;39.20;60.70
82877;DHT22;72655;47.596;7.658;2023-09-19T15:33:40;39.00;63.30
82877;DHT22;72655;47.596;7.658;2023-09-19T15:36:08;39.20;62.20
82877;DHT22;72655;47.596;7.658;2023-09-19T15:38:56;39.70;63.00
82877;DHT22;72655;47.596;7.658;2023-09-19T15:41:25;39.20;61.70
82877;DHT22;72655;47.596;7.658;2023-09-19T15:43:52;38.40;62.30
82877;DHT22;72655;47.596;7.658;2023-09-19T15:46:19;37.50;64.00
82877;DHT22;72655;47.596;7.658;2023-09-19T15:48:47;36.60;64.70
82877;DHT22;72655;47.596;7.658;2023-09-19T15:51:14;35.70;66.40
82877;DHT22;72655;47.596;7.658;2023-09-19T15:53:43;35.10;67.30
82877;DHT22;72655;47.596;7.658;2023-09-19T15:56:12;34.20;69.00
82877;DHT22;72655;47.596;7.658;2023-09-19T15:58:40;33.50;70.40
82877;DHT22;72655;47.596;7.658;2023-09-19T16:01:07;32.90;72.00
82877;DHT22;72655;47.596;7.658;2023-09-19T16:03:35;32.30;73.70
82877;DHT22;72655;47.596;7.658;2023-09-19T16:06:08;31.60;75.90
82877;DHT22;72655;47.596;7.658;2023-09-19T16:08:37;31.20;77.30
82877;DHT22;72655;47.596;7.658;2023-09-19T16:11:05;30.80;76.80
82877;DHT22;72655;47.596;7.658;2023-09-19T16:13:36;29.90;78.40
82877;DHT22;72655;47.596;7.658;2023-09-19T16:16:03;29.10;80.60
82877;DHT22;72655;47.596;7.658;2023-09-19T16:18:30;28.40;82.40
82877;DHT22;72655;47.596;7.658;2023-09-19T16:21:01;28.00;83.70
82877;DHT22;72655;47.596;7.658;2023-09-19T16:23:29;27.50;85.10
82877;DHT22;72655;47.596;7.658;2023-09-19T16:26:02;27.30;85.40
82877;DHT22;72655;47.596;7.658;2023-09-19T16:28:30;27.10;86.40
82877;DHT22;72655;47.596;7.658;2023-09-19T16:30:59;26.60;87.60
82877;DHT22;72655;47.596;7.658;2023-09-19T16:33:27;26.30;88.70
82877;DHT22;72655;47.596;7.658;2023-09-19T16:35:54;26.20;89.10
82877;DHT22;72655;47.596;7.658;2023-09-19T16:38:21;25.90;89.90
82877;DHT22;72655;47.596;7.658;2023-09-19T16:40:52;25.70;90.30
82877;DHT22;72655;47.596;7.658;2023-09-19T16:43:19;25.30;90.80
82877;DHT22;72655;47.596;7.658;2023-09-19T16:45:52;25.00;91.30
82877;DHT22;72655;47.596;7.658;2023-09-19T16:48:21;24.90;91.60
82877;DHT22;72655;47.596;7.658;2023-09-19T16:50:49;24.80;91.80
82877;DHT22;72655;47.596;7.658;2023-09-19T16:53:20;24.70;92.30
82877;DHT22;72655;47.596;7.658;2023-09-19T16:55:48;24.60;92.40
82877;DHT22;72655;47.596;7.658;2023-09-19T16:58:15;24.60;92.80
82877;DHT22;72655;47.596;7.658;2023-09-19T17:00:43;24.40;92.80
82877;DHT22;72655;47.596;7.658;2023-09-19T17:03:12;24.30;93.30
82877;DHT22;72655;47.596;7.658;2023-09-19T17:05:41;24.20;93.40
82877;DHT22;72655;47.596;7.658;2023-09-19T17:08:10;24.20;93.90
82877;DHT22;72655;47.596;7.658;2023-09-19T17:10:38;24.20;94.00
82877;DHT22;72655;47.596;7.658;2023-09-19T17:13:09;24.10;95.10
82877;DHT22;72655;47.596;7.658;2023-09-19T17:15:36;23.90;94.10
82877;DHT22;72655;47.596;7.658;2023-09-19T17:18:05;23.90;94.70
82877;DHT22;72655;47.596;7.658;2023-09-19T17:20:32;23.80;94.40
82877;DHT22;72655;47.596;7.658;2023-09-19T17:23:01;23.60;94.30
82877;DHT22;72655;47.596;7.658;2023-09-19T17:25:28;23.60;95.00
82877;DHT22;72655;47.596;7.658;2023-09-19T17:27:56;23.50;95.30
82877;DHT22;72655;47.596;7.658;2023-09-19T17:30:24;23.40;96.70
82877;DHT22;72655;47.596;7.658;2023-09-19T17:32:53;23.30;96.60
82877;DHT22;72655;47.596;7.658;2023-09-19T17:35:21;23.20;97.30
82877;DHT22;72655;47.596;7.658;2023-09-19T17:37:49;23.00;97.80
82877;DHT22;72655;47.596;7.658;2023-09-19T17:40:18;22.80;98.30
82877;DHT22;72655;47.596;7.658;2023-09-19T17:42:45;22.70;98.70
82877;DHT22;72655;47.596;7.658;2023-09-19T17:45:14;22.50;99.60
82877;DHT22;72655;47.596;7.658;2023-09-19T17:47:42;22.30;99.90
82877;DHT22;72655;47.596;7.658;2023-09-19T17:50:09;22.20;99.90
82877;DHT22;72655;47.596;7.658;2023-09-19T17:52:38;22.00;99.90
82877;DHT22;72655;47.596;7.658;2023-09-19T17:55:07;21.90;99.90
82877;DHT22;72655;47.596;7.658;2023-09-19T17:57:35;21.80;99.90
82877;DHT22;72655;47.596;7.658;2023-09-19T18:00:03;21.70;99.90
82877;DHT22;72655;47.596;7.658;2023-09-19T18:02:34;21.60;99.90
82877;DHT22;72655;47.596;7.658;2023-09-19T18:05:03;21.50;99.90
82877;DHT22;72655;47.596;7.658;2023-09-19T18:07:30;21.50;99.90
82877;DHT22;72655;47.596;7.658;2023-09-19T18:09:57;21.40;99.90
82877;DHT22;72655;47.596;7.658;2023-09-19T18:12:25;21.30;99.90
82877;DHT22;72655;47.596;7.658;2023-09-19T18:14:58;21.30;99.90
82877;DHT22;72655;47.596;7.658;2023-09-19T18:17:25;21.20;99.90
82877;DHT22;72655;47.596;7.658;2023-09-19T18:19:52;21.10;99.90
82877;DHT22;72655;47.596;7.658;2023-09-19T18:22:19;21.00;99.90
82877;DHT22;72655;47.596;7.658;2023-09-19T18:24:46;20.90;99.90
82877;DHT22;72655;47.596;7.658;2023-09-19T18:27:13;20.70;99.90
82877;DHT22;72655;47.596;7.658;2023-09-19T18:29:40;20.60;99.90
82877;DHT22;72655;47.596;7.658;2023-09-19T18:32:12;20.50;99.90
82877;DHT22;72655;47.596;7.658;2023-09-19T18:34:39;20.30;99.90
82877;DHT22;72655;47.596;7.658;2023-09-19T18:37:06;20.20;99.90
82877;DHT22;72655;47.596;7.658;2023-09-19T18:39:39;20.20;99.90
82877;DHT22;72655;47.596;7.658;2023-09-19T18:42:06;20.10;99.90
82877;DHT22;72655;47.596;7.658;2023-09-19T18:44:33;20.00;99.90
82877;DHT22;72655;47.596;7.658;2023-09-19T18:47:00;19.90;99.90
82877;DHT22;72655;47.596;7.658;2023-09-19T18:49:31;19.80;99.90
82877;DHT22;72655;47.596;7.658;2023-09-19T18:52:00;19.70;99.90
82877;DHT22;72655;47.596;7.658;2023-09-19T18:54:27;19.60;99.90
82877;DHT22;72655;47.596;7.658;2023-09-19T18:56:55;19.60;99.90
82877;DHT22;72655;47.596;7.658;2023-09-19T18:59:24;19.50;99.90
82877;DHT22;72655;47.596;7.658;2023-09-19T19:01:50;19.50;99.90
82877;DHT22;72655;47.596;7.658;2023-09-19T19:04:19;19.40;99.90
82877;DHT22;72655;47.596;7.658;2023-09-19T19:06:50;19.30;99.90
82877;DHT22;72655;47.596;7.658;2023-09-19T19:09:17;19.20;99.90
82877;DHT22;72655;47.596;7.658;2023-09-19T19:11:44;19.10;99.90
82877;DHT22;72655;47.596;7.658;2023-09-19T19:14:11;19.00;99.90
82877;DHT22;72655;47.596;7.658;2023-09-19T19:16:43;19.00;99.90
82877;DHT22;72655;47.596;7.658;2023-09-19T19:19:12;19.00;99.90
82877;DHT22;72655;47.596;7.658;2023-09-19T19:21:41;18.90;99.90
